sensor_id;sensor_type;location;lat;lon;timestamp;pressure;altitude;pressure_sealevel;temperature;humidity
1480;BME280;732;51.698;4.886;2023-03-26T00:01:45;100858.13;;;4.81;80.75
1480;BME280;732;51.698;4.886;2023-03-26T00:04:15;100857.28;;;4.81;80.39
1480;BME280;732;51.698;4.886;2023-03-26T00:06:46;100785.50;;;4.23;81.07
1480;BME280;732;51.698;4.886;2023-03-26T00:09:16;100852.88;;;4.62;81.55
1480;BME280;732;51.698;4.886;2023-03-26T00:11:45;100852.13;;;4.69;80.76
1480;BME280;732;51.698;4.886;2023-03-26T00:14:13;100835.53;;;4.57;81.13
1480;BME280;732;51.698;4.886;2023-03-26T00:16:45;100848.81;;;4.67;80.67
1480;BME280;732;51.698;4.886;2023-03-26T00:19:15;100849.91;;;4.65;81.04
1480;BME280;732;51.698;4.886;2023-03-26T00:21:43;100825.47;;;4.51;80.33
1480;BME280;732;51.698;4.886;2023-03-26T00:24:14;100848.25;;;4.64;80.67
1480;BME280;732;51.698;4.886;2023-03-26T00:26:43;100817.91;;;4.56;79.91
1480;BME280;732;51.698;4.886;2023-03-26T00:29:19;100816.78;;;4.59;80.18
1480;BME280;732;51.698;4.886;2023-03-26T00:31:50;100818.50;;;4.50;80.33
1480;BME280;732;51.698;4.886;2023-03-26T00:34:19;100825.19;;;4.54;80.44
1480;BME280;732;51.698;4.886;2023-03-26T00:36:49;100816.09;;;4.57;80.11
1480;BME280;732;51.698;4.886;2023-03-26T00:39:20;100803.38;;;4.51;79.90
1480;BME280;732;51.698;4.886;2023-03-26T00:41:50;100814.00;;;4.41;80.18
1480;BME280;732;51.698;4.886;2023-03-26T00:44:21;100805.75;;;4.34;80.00
1480;BME280;732;51.698;4.886;2023-03-26T00:46:51;100780.25;;;4.04;80.71
1480;BME280;732;51.698;4.886;2023-03-26T00:49:20;100826.75;;;4.08;81.48
1480;BME280;732;51.698;4.886;2023-03-26T00:51:49;100786.25;;;3.76;82.73
1480;BME280;732;51.698;4.886;2023-03-26T00:54:17;100735.41;;;3.42;83.09
1480;BME280;732;51.698;4.886;2023-03-26T00:56:46;100778.00;;;3.60;83.53
1480;BME280;732;51.698;4.886;2023-03-26T00:59:15;100780.81;;;3.68;83.44
1480;BME280;732;51.698;4.886;2023-03-26T01:01:43;100810.69;;;4.00;83.13
1480;BME280;732;51.698;4.886;2023-03-26T01:04:27;100768.38;;;3.88;82.40
1480;BME280;732;51.698;4.886;2023-03-26T01:07:00;100775.22;;;3.71;83.10
1480;BME280;732;51.698;4.886;2023-03-26T01:09:34;100763.91;;;3.79;82.91
1480;BME280;732;51.698;4.886;2023-03-26T01:12:06;100720.91;;;3.56;82.75
1480;BME280;732;51.698;4.886;2023-03-26T01:14:37;100770.47;;;3.94;82.21
1480;BME280;732;51.698;4.886;2023-03-26T01:17:06;100743.66;;;3.78;81.44
1480;BME280;732;51.698;4.886;2023-03-26T01:19:46;100759.84;;;3.94;81.75
1480;BME280;732;51.698;4.886;2023-03-26T01:22:19;100748.25;;;3.76;82.26
1480;BME280;732;51.698;4.886;2023-03-26T01:24:50;100775.66;;;3.86;82.76
1480;BME280;732;51.698;4.886;2023-03-26T01:27:33;100750.91;;;3.86;81.76
1480;BME280;732;51.698;4.886;2023-03-26T01:30:12;100762.63;;;4.03;82.09
1480;BME280;732;51.698;4.886;2023-03-26T01:33:00;100767.09;;;4.02;81.85
1480;BME280;732;51.698;4.886;2023-03-26T01:35:42;100722.84;;;3.73;82.68
1480;BME280;732;51.698;4.886;2023-03-26T01:38:22;100750.34;;;3.92;83.04
1480;BME280;732;51.698;4.886;2023-03-26T01:40:59;100727.31;;;3.92;82.42
1480;BME280;732;51.698;4.886;2023-03-26T01:43:35;100719.22;;;3.84;82.18
1480;BME280;732;51.698;4.886;2023-03-26T01:46:08;100743.91;;;4.04;81.77
1480;BME280;732;51.698;4.886;2023-03-26T01:48:41;100662.53;;;3.56;81.51
1480;BME280;732;51.698;4.886;2023-03-26T01:51:12;100703.69;;;3.89;81.79
1480;BME280;732;51.698;4.886;2023-03-26T01:53:45;100750.88;;;4.15;81.71
1480;BME280;732;51.698;4.886;2023-03-26T01:56:20;100732.28;;;4.15;81.74
1480;BME280;732;51.698;4.886;2023-03-26T01:59:20;100739.22;;;4.36;81.41
1480;BME280;732;51.698;4.886;2023-03-26T02:01:58;100730.44;;;4.25;81.64
1480;BME280;732;51.698;4.886;2023-03-26T02:04:35;100722.72;;;4.32;81.20
1480;BME280;732;51.698;4.886;2023-03-26T02:07:15;100703.22;;;4.14;80.96
1480;BME280;732;51.698;4.886;2023-03-26T02:09:50;100706.66;;;4.34;80.41
1480;BME280;732;51.698;4.886;2023-03-26T02:12:23;100698.97;;;4.31;80.61
1480;BME280;732;51.698;4.886;2023-03-26T02:14:52;100699.41;;;4.26;80.43
1480;BME280;732;51.698;4.886;2023-03-26T02:17:21;100664.19;;;3.86;80.62
1480;BME280;732;51.698;4.886;2023-03-26T02:19:50;100700.03;;;4.10;81.14
1480;BME280;732;51.698;4.886;2023-03-26T02:22:20;100696.81;;;4.06;81.07
1480;BME280;732;51.698;4.886;2023-03-26T02:24:57;100645.72;;;3.85;80.94
1480;BME280;732;51.698;4.886;2023-03-26T02:27:26;100654.63;;;3.93;80.45
1480;BME280;732;51.698;4.886;2023-03-26T02:29:55;100683.66;;;4.05;80.58
1480;BME280;732;51.698;4.886;2023-03-26T02:32:24;100698.75;;;4.14;80.50
1480;BME280;732;51.698;4.886;2023-03-26T02:34:55;100692.72;;;4.22;80.26
1480;BME280;732;51.698;4.886;2023-03-26T02:37:24;100697.47;;;4.18;80.66
1480;BME280;732;51.698;4.886;2023-03-26T02:40:00;100648.50;;;3.93;80.41
1480;BME280;732;51.698;4.886;2023-03-26T02:42:33;100649.44;;;4.12;80.43
1480;BME280;732;51.698;4.886;2023-03-26T02:45:02;100680.13;;;4.24;80.85
1480;BME280;732;51.698;4.886;2023-03-26T02:47:50;100674.63;;;4.35;80.54
1480;BME280;732;51.698;4.886;2023-03-26T02:50:46;100656.03;;;4.35;80.32
1480;BME280;732;51.698;4.886;2023-03-26T02:53:38;100659.91;;;4.51;80.40
1480;BME280;732;51.698;4.886;2023-03-26T02:56:22;100623.03;;;4.38;80.50
1480;BME280;732;51.698;4.886;2023-03-26T02:59:16;100650.31;;;4.68;80.03
1480;BME280;732;51.698;4.886;2023-03-26T03:01:49;100646.91;;;4.76;80.06
1480;BME280;732;51.698;4.886;2023-03-26T03:04:19;100618.03;;;4.63;79.76
1480;BME280;732;51.698;4.886;2023-03-26T03:06:48;100640.72;;;4.85;79.11
1480;BME280;732;51.698;4.886;2023-03-26T03:09:25;100631.72;;;4.86;79.23
1480;BME280;732;51.698;4.886;2023-03-26T03:12:19;100628.25;;;4.85;78.67
1480;BME280;732;51.698;4.886;2023-03-26T03:14:49;100579.75;;;4.55;78.63
1480;BME280;732;51.698;4.886;2023-03-26T03:17:17;100588.97;;;4.61;78.45
1480;BME280;732;51.698;4.886;2023-03-26T03:19:46;100624.59;;;4.86;78.06
1480;BME280;732;51.698;4.886;2023-03-26T03:22:15;100586.81;;;4.65;78.26
1480;BME280;732;51.698;4.886;2023-03-26T03:24:46;100608.28;;;4.81;78.31
1480;BME280;732;51.698;4.886;2023-03-26T03:27:14;100551.53;;;4.45;78.41
1480;BME280;732;51.698;4.886;2023-03-26T03:29:51;100596.78;;;4.81;78.06
1480;BME280;732;51.698;4.886;2023-03-26T03:32:40;100574.69;;;4.62;78.47
1480;BME280;732;51.698;4.886;2023-03-26T03:35:09;100595.81;;;4.82;78.45
1480;BME280;732;51.698;4.886;2023-03-26T03:37:39;100600.91;;;4.75;78.53
1480;BME280;732;51.698;4.886;2023-03-26T03:40:10;100589.56;;;4.73;78.71
1480;BME280;732;51.698;4.886;2023-03-26T03:42:38;100572.13;;;4.70;78.35
1480;BME280;732;51.698;4.886;2023-03-26T03:45:11;100582.91;;;4.87;78.75
1480;BME280;732;51.698;4.886;2023-03-26T03:47:58;100571.59;;;4.85;78.40
1480;BME280;732;51.698;4.886;2023-03-26T03:50:36;100544.19;;;4.66;78.47
1480;BME280;732;51.698;4.886;2023-03-26T03:53:25;100528.69;;;4.62;78.31
1480;BME280;732;51.698;4.886;2023-03-26T03:55:57;100575.69;;;4.97;78.42
1480;BME280;732;51.698;4.886;2023-03-26T03:58:48;100572.88;;;4.99;78.43
1480;BME280;732;51.698;4.886;2023-03-26T04:01:27;100560.25;;;5.01;78.44
1480;BME280;732;51.698;4.886;2023-03-26T04:04:02;100515.84;;;4.75;78.51
1480;BME280;732;51.698;4.886;2023-03-26T04:06:49;100546.91;;;4.93;78.40
1480;BME280;732;51.698;4.886;2023-03-26T04:09:18;100548.50;;;5.03;78.45
1480;BME280;732;51.698;4.886;2023-03-26T04:11:48;100538.53;;;5.05;78.30
1480;BME280;732;51.698;4.886;2023-03-26T04:14:38;100540.38;;;5.05;78.11
1480;BME280;732;51.698;4.886;2023-03-26T04:17:28;100526.28;;;4.95;78.00
1480;BME280;732;51.698;4.886;2023-03-26T04:19:57;100527.16;;;4.95;78.17
1480;BME280;732;51.698;4.886;2023-03-26T04:22:33;100520.00;;;4.96;78.31
1480;BME280;732;51.698;4.886;2023-03-26T04:25:06;100520.53;;;4.99;78.27
1480;BME280;732;51.698;4.886;2023-03-26T04:27:56;100501.72;;;4.93;78.27
1480;BME280;732;51.698;4.886;2023-03-26T04:31:01;100505.16;;;4.85;78.09
1480;BME280;732;51.698;4.886;2023-03-26T04:33:37;100487.59;;;4.74;78.20
1480;BME280;732;51.698;4.886;2023-03-26T04:36:08;100479.19;;;4.79;78.46
1480;BME280;732;51.698;4.886;2023-03-26T04:38:41;100477.06;;;4.82;78.23
1480;BME280;732;51.698;4.886;2023-03-26T04:41:13;100470.44;;;4.86;77.77
1480;BME280;732;51.698;4.886;2023-03-26T04:43:58;100497.66;;;5.06;78.48
1480;BME280;732;51.698;4.886;2023-03-26T04:46:47;100492.88;;;5.10;78.19
1480;BME280;732;51.698;4.886;2023-03-26T04:49:26;100485.72;;;5.11;78.38
1480;BME280;732;51.698;4.886;2023-03-26T04:51:55;100456.19;;;4.96;78.30
1480;BME280;732;51.698;4.886;2023-03-26T04:54:59;100472.31;;;5.20;77.87
1480;BME280;732;51.698;4.886;2023-03-26T04:57:33;100462.75;;;5.10;77.85
1480;BME280;732;51.698;4.886;2023-03-26T05:00:11;100469.34;;;5.23;77.82
1480;BME280;732;51.698;4.886;2023-03-26T05:02:45;100468.03;;;5.28;77.70
1480;BME280;732;51.698;4.886;2023-03-26T05:05:19;100459.91;;;5.29;78.05
1480;BME280;732;51.698;4.886;2023-03-26T05:07:49;100456.25;;;5.30;77.87
1480;BME280;732;51.698;4.886;2023-03-26T05:10:19;100427.72;;;5.14;77.72
1480;BME280;732;51.698;4.886;2023-03-26T05:13:02;100448.97;;;5.32;77.75
1480;BME280;732;51.698;4.886;2023-03-26T05:15:34;100444.97;;;5.36;77.91
1480;BME280;732;51.698;4.886;2023-03-26T05:18:14;100417.31;;;5.21;77.98
1480;BME280;732;51.698;4.886;2023-03-26T05:20:50;100409.81;;;5.16;77.55
1480;BME280;732;51.698;4.886;2023-03-26T05:23:19;100386.50;;;5.10;77.67
1480;BME280;732;51.698;4.886;2023-03-26T05:26:08;100391.72;;;5.20;77.28
1480;BME280;732;51.698;4.886;2023-03-26T05:28:39;100432.25;;;5.48;77.44
1480;BME280;732;51.698;4.886;2023-03-26T05:31:19;100379.91;;;5.22;77.65
1480;BME280;732;51.698;4.886;2023-03-26T05:33:51;100429.78;;;5.55;77.41
1480;BME280;732;51.698;4.886;2023-03-26T05:36:23;100427.63;;;5.59;77.05
1480;BME280;732;51.698;4.886;2023-03-26T05:39:03;100426.63;;;5.60;77.46
1480;BME280;732;51.698;4.886;2023-03-26T05:42:04;100401.94;;;5.41;77.66
1480;BME280;732;51.698;4.886;2023-03-26T05:44:53;100422.59;;;5.47;77.61
1480;BME280;732;51.698;4.886;2023-03-26T05:47:26;100412.25;;;5.44;77.76
1480;BME280;732;51.698;4.886;2023-03-26T05:49:56;100359.56;;;5.13;77.53
1480;BME280;732;51.698;4.886;2023-03-26T05:52:26;100400.28;;;5.40;77.70
1480;BME280;732;51.698;4.886;2023-03-26T05:55:27;100348.41;;;5.01;78.16
1480;BME280;732;51.698;4.886;2023-03-26T05:58:15;100409.94;;;5.41;77.98
1480;BME280;732;51.698;4.886;2023-03-26T06:00:56;100373.38;;;5.17;78.32
1480;BME280;732;51.698;4.886;2023-03-26T06:03:37;100410.97;;;5.48;77.93
1480;BME280;732;51.698;4.886;2023-03-26T06:06:16;100400.16;;;5.50;78.39
1480;BME280;732;51.698;4.886;2023-03-26T06:08:54;100382.81;;;5.46;77.96
1480;BME280;732;51.698;4.886;2023-03-26T06:11:30;100365.50;;;5.33;77.98
1480;BME280;732;51.698;4.886;2023-03-26T06:14:00;100382.63;;;5.39;78.64
1480;BME280;732;51.698;4.886;2023-03-26T06:16:29;100335.09;;;5.01;78.94
1480;BME280;732;51.698;4.886;2023-03-26T06:19:10;100375.00;;;5.36;78.62
1480;BME280;732;51.698;4.886;2023-03-26T06:21:48;100349.09;;;5.12;78.83
1480;BME280;732;51.698;4.886;2023-03-26T06:24:22;100357.31;;;5.27;78.74
1480;BME280;732;51.698;4.886;2023-03-26T06:27:09;100372.81;;;5.31;79.47
1480;BME280;732;51.698;4.886;2023-03-26T06:29:58;100370.97;;;5.32;79.39
1480;BME280;732;51.698;4.886;2023-03-26T06:32:53;100373.19;;;5.45;79.30
1480;BME280;732;51.698;4.886;2023-03-26T06:35:25;100347.03;;;5.32;79.18
1480;BME280;732;51.698;4.886;2023-03-26T06:37:56;100356.59;;;5.51;79.24
1480;BME280;732;51.698;4.886;2023-03-26T06:40:26;100375.91;;;5.61;79.12
1480;BME280;732;51.698;4.886;2023-03-26T06:43:07;100368.09;;;5.68;78.81
1480;BME280;732;51.698;4.886;2023-03-26T06:46:00;100368.25;;;5.66;79.34
1480;BME280;732;51.698;4.886;2023-03-26T06:48:47;100365.28;;;5.69;79.27
1480;BME280;732;51.698;4.886;2023-03-26T06:51:27;100362.13;;;5.66;79.39
1480;BME280;732;51.698;4.886;2023-03-26T06:54:14;100324.63;;;5.43;79.37
1480;BME280;732;51.698;4.886;2023-03-26T06:57:03;100364.44;;;5.69;79.25
1480;BME280;732;51.698;4.886;2023-03-26T06:59:51;100377.28;;;5.82;79.35
1480;BME280;732;51.698;4.886;2023-03-26T07:02:38;100373.47;;;5.93;78.98
1480;BME280;732;51.698;4.886;2023-03-26T07:05:25;100359.34;;;5.92;79.08
1480;BME280;732;51.698;4.886;2023-03-26T07:08:12;100318.88;;;5.72;78.60
1480;BME280;732;51.698;4.886;2023-03-26T07:10:59;100362.69;;;6.11;78.79
1480;BME280;732;51.698;4.886;2023-03-26T07:13:35;100363.66;;;6.01;78.95
1480;BME280;732;51.698;4.886;2023-03-26T07:16:27;100347.53;;;6.03;78.72
1480;BME280;732;51.698;4.886;2023-03-26T07:19:31;100364.34;;;6.20;78.58
1480;BME280;732;51.698;4.886;2023-03-26T07:22:01;100367.34;;;6.25;78.56
1480;BME280;732;51.698;4.886;2023-03-26T07:24:49;100336.06;;;6.11;78.49
1480;BME280;732;51.698;4.886;2023-03-26T07:27:49;100342.72;;;6.15;78.16
1480;BME280;732;51.698;4.886;2023-03-26T07:31:06;100338.22;;;6.24;78.15
1480;BME280;732;51.698;4.886;2023-03-26T07:33:54;100337.41;;;6.23;77.93
1480;BME280;732;51.698;4.886;2023-03-26T07:36:44;100340.38;;;6.20;78.08
1480;BME280;732;51.698;4.886;2023-03-26T07:39:47;100355.88;;;6.25;77.94
1480;BME280;732;51.698;4.886;2023-03-26T07:42:43;100347.88;;;6.16;77.98
1480;BME280;732;51.698;4.886;2023-03-26T07:45:48;100338.88;;;6.09;78.37
1480;BME280;732;51.698;4.886;2023-03-26T07:48:28;100349.69;;;6.08;78.40
1480;BME280;732;51.698;4.886;2023-03-26T07:51:25;100349.53;;;6.09;78.26
1480;BME280;732;51.698;4.886;2023-03-26T07:54:27;100347.38;;;6.13;78.33
1480;BME280;732;51.698;4.886;2023-03-26T07:56:58;100344.22;;;6.17;78.08
1480;BME280;732;51.698;4.886;2023-03-26T07:59:37;100326.06;;;6.04;78.40
1480;BME280;732;51.698;4.886;2023-03-26T08:02:44;100313.75;;;6.03;78.48
1480;BME280;732;51.698;4.886;2023-03-26T08:05:52;100342.06;;;6.29;78.34
1480;BME280;732;51.698;4.886;2023-03-26T08:08:42;100328.91;;;6.19;78.04
1480;BME280;732;51.698;4.886;2023-03-26T08:11:49;100333.53;;;6.34;77.76
1480;BME280;732;51.698;4.886;2023-03-26T08:14:32;100334.41;;;6.43;78.22
1480;BME280;732;51.698;4.886;2023-03-26T08:17:10;100301.41;;;6.27;77.78
1480;BME280;732;51.698;4.886;2023-03-26T08:19:50;100305.75;;;6.28;77.64
1480;BME280;732;51.698;4.886;2023-03-26T08:22:30;100339.06;;;6.49;78.04
1480;BME280;732;51.698;4.886;2023-03-26T08:25:17;100309.56;;;6.34;77.65
1480;BME280;732;51.698;4.886;2023-03-26T08:27:59;100316.59;;;6.43;77.68
1480;BME280;732;51.698;4.886;2023-03-26T08:30:31;100341.53;;;6.67;77.56
1480;BME280;732;51.698;4.886;2023-03-26T08:33:11;100304.59;;;6.56;77.67
1480;BME280;732;51.698;4.886;2023-03-26T08:35:40;100331.69;;;6.76;77.48
1480;BME280;732;51.698;4.886;2023-03-26T08:38:11;100336.19;;;6.75;77.37
1480;BME280;732;51.698;4.886;2023-03-26T08:41:16;100334.84;;;6.79;77.41
1480;BME280;732;51.698;4.886;2023-03-26T08:48:52;100331.00;;;6.82;77.13
1480;BME280;732;51.698;4.886;2023-03-26T08:52:10;100335.13;;;6.93;77.29
1480;BME280;732;51.698;4.886;2023-03-26T08:55:13;100335.97;;;6.93;77.39
1480;BME280;732;51.698;4.886;2023-03-26T08:58:17;100287.88;;;6.70;77.18
1480;BME280;732;51.698;4.886;2023-03-26T09:01:19;100309.50;;;6.83;76.93
1480;BME280;732;51.698;4.886;2023-03-26T09:04:37;100331.13;;;6.97;77.32
1480;BME280;732;51.698;4.886;2023-03-26T09:07:52;100332.72;;;7.23;77.24
1480;BME280;732;51.698;4.886;2023-03-26T09:10:51;100312.84;;;7.25;76.90
1480;BME280;732;51.698;4.886;2023-03-26T09:14:07;100315.78;;;7.39;76.57
1480;BME280;732;51.698;4.886;2023-03-26T09:24:15;100328.47;;;7.37;75.92
1480;BME280;732;51.698;4.886;2023-03-26T09:27:07;100333.84;;;7.28;76.22
1480;BME280;732;51.698;4.886;2023-03-26T09:33:52;100337.66;;;6.86;76.79
1480;BME280;732;51.698;4.886;2023-03-26T09:39:35;100342.84;;;6.79;77.17
1480;BME280;732;51.698;4.886;2023-03-26T09:42:18;100334.66;;;6.89;77.42
1480;BME280;732;51.698;4.886;2023-03-26T09:45:20;100332.81;;;6.90;77.09
1480;BME280;732;51.698;4.886;2023-03-26T09:48:38;100341.13;;;6.95;76.61
1480;BME280;732;51.698;4.886;2023-03-26T09:51:38;100323.53;;;6.77;76.66
1480;BME280;732;51.698;4.886;2023-03-26T09:54:40;100315.34;;;6.79;77.12
1480;BME280;732;51.698;4.886;2023-03-26T09:57:28;100336.75;;;7.10;77.38
1480;BME280;732;51.698;4.886;2023-03-26T10:00:20;100329.22;;;7.14;77.37
1480;BME280;732;51.698;4.886;2023-03-26T10:03:27;100343.94;;;7.41;76.76
1480;BME280;732;51.698;4.886;2023-03-26T10:06:13;100350.53;;;7.62;76.53
1480;BME280;732;51.698;4.886;2023-03-26T10:09:00;100331.47;;;7.65;75.99
1480;BME280;732;51.698;4.886;2023-03-26T10:11:59;100318.91;;;7.74;75.69
1480;BME280;732;51.698;4.886;2023-03-26T10:14:37;100353.16;;;8.02;75.25
1480;BME280;732;51.698;4.886;2023-03-26T10:17:30;100349.25;;;8.12;74.60
1480;BME280;732;51.698;4.886;2023-03-26T10:20:24;100352.91;;;8.11;74.10
1480;BME280;732;51.698;4.886;2023-03-26T10:23:07;100337.97;;;7.94;73.93
1480;BME280;732;51.698;4.886;2023-03-26T10:25:57;100324.59;;;7.71;73.75
1480;BME280;732;51.698;4.886;2023-03-26T10:28:47;100299.97;;;7.60;74.18
1480;BME280;732;51.698;4.886;2023-03-26T10:31:44;100322.00;;;7.86;74.25
1480;BME280;732;51.698;4.886;2023-03-26T10:34:34;100342.56;;;8.08;74.04
1480;BME280;732;51.698;4.886;2023-03-26T10:37:13;100330.09;;;8.01;73.72
1480;BME280;732;51.698;4.886;2023-03-26T10:40:02;100348.75;;;8.09;73.29
1480;BME280;732;51.698;4.886;2023-03-26T10:46:30;100372.97;;;8.07;73.50
1480;BME280;732;51.698;4.886;2023-03-26T10:49:32;100373.72;;;7.93;73.36
1480;BME280;732;51.698;4.886;2023-03-26T10:52:08;100373.22;;;7.97;73.63
1480;BME280;732;51.698;4.886;2023-03-26T10:54:51;100356.38;;;7.89;73.60
1480;BME280;732;51.698;4.886;2023-03-26T10:57:34;100375.63;;;8.07;73.59
1480;BME280;732;51.698;4.886;2023-03-26T11:00:16;100388.53;;;8.27;73.11
1480;BME280;732;51.698;4.886;2023-03-26T11:05:56;100382.00;;;8.29;73.68
1480;BME280;732;51.698;4.886;2023-03-26T11:08:34;100393.41;;;8.46;73.50
1480;BME280;732;51.698;4.886;2023-03-26T11:11:13;100399.84;;;8.52;73.31
1480;BME280;732;51.698;4.886;2023-03-26T11:13:57;100346.00;;;8.40;72.20
1480;BME280;732;51.698;4.886;2023-03-26T11:16:39;100397.53;;;8.87;72.14
1480;BME280;732;51.698;4.886;2023-03-26T11:19:18;100375.09;;;8.88;71.81
1480;BME280;732;51.698;4.886;2023-03-26T11:21:56;100386.94;;;9.09;71.60
1480;BME280;732;51.698;4.886;2023-03-26T11:28:14;100386.94;;;8.94;70.03
1480;BME280;732;51.698;4.886;2023-03-26T11:30:52;100395.88;;;8.86;71.07
1480;BME280;732;51.698;4.886;2023-03-26T11:33:26;100403.91;;;8.86;71.33
1480;BME280;732;51.698;4.886;2023-03-26T11:36:02;100400.94;;;8.81;71.74
1480;BME280;732;51.698;4.886;2023-03-26T11:38:38;100405.56;;;8.87;70.95
1480;BME280;732;51.698;4.886;2023-03-26T11:41:19;100393.44;;;8.61;70.15
1480;BME280;732;51.698;4.886;2023-03-26T11:44:19;100378.75;;;7.88;70.46
1480;BME280;732;51.698;4.886;2023-03-26T11:46:54;100400.81;;;7.81;72.12
1480;BME280;732;51.698;4.886;2023-03-26T11:49:25;100396.00;;;7.77;72.71
1480;BME280;732;51.698;4.886;2023-03-26T11:51:55;100415.41;;;8.02;72.47
1480;BME280;732;51.698;4.886;2023-03-26T11:54:26;100419.34;;;8.38;71.91
1480;BME280;732;51.698;4.886;2023-03-26T11:57:02;100401.66;;;8.13;71.53
1480;BME280;732;51.698;4.886;2023-03-26T11:59:36;100429.91;;;8.54;72.23
1480;BME280;732;51.698;4.886;2023-03-26T12:02:26;100406.03;;;8.29;71.96
1480;BME280;732;51.698;4.886;2023-03-26T12:05:23;100433.28;;;8.02;72.22
1480;BME280;732;51.698;4.886;2023-03-26T12:07:57;100428.25;;;7.67;72.58
1480;BME280;732;51.698;4.886;2023-03-26T12:10:31;100426.69;;;7.41;72.68
1480;BME280;732;51.698;4.886;2023-03-26T12:13:05;100423.63;;;7.61;74.06
1480;BME280;732;51.698;4.886;2023-03-26T12:15:43;100440.84;;;7.50;72.83
1480;BME280;732;51.698;4.886;2023-03-26T12:18:23;100418.09;;;7.62;74.15
1480;BME280;732;51.698;4.886;2023-03-26T12:21:05;100438.63;;;7.70;72.82
1480;BME280;732;51.698;4.886;2023-03-26T12:23:53;100460.69;;;7.56;73.62
1480;BME280;732;51.698;4.886;2023-03-26T12:26:36;100448.19;;;7.48;72.14
1480;BME280;732;51.698;4.886;2023-03-26T12:29:10;100431.22;;;7.32;74.11
1480;BME280;732;51.698;4.886;2023-03-26T12:31:51;100455.53;;;7.54;74.68
1480;BME280;732;51.698;4.886;2023-03-26T12:34:25;100454.84;;;7.52;74.60
1480;BME280;732;51.698;4.886;2023-03-26T12:36:57;100434.75;;;7.33;74.67
1480;BME280;732;51.698;4.886;2023-03-26T12:39:34;100466.63;;;7.74;76.13
1480;BME280;732;51.698;4.886;2023-03-26T12:42:28;100449.09;;;8.11;74.74
1480;BME280;732;51.698;4.886;2023-03-26T12:45:26;100381.41;;;7.56;73.46
1480;BME280;732;51.698;4.886;2023-03-26T12:47:56;100412.03;;;7.29;73.22
1480;BME280;732;51.698;4.886;2023-03-26T12:50:48;100444.56;;;7.41;73.83
1480;BME280;732;51.698;4.886;2023-03-26T12:53:59;100428.78;;;7.14;73.45
1480;BME280;732;51.698;4.886;2023-03-26T12:56:40;100463.16;;;6.84;74.41
1480;BME280;732;51.698;4.886;2023-03-26T12:59:38;100494.97;;;6.61;76.75
1480;BME280;732;51.698;4.886;2023-03-26T13:02:42;100432.28;;;6.24;77.63
1480;BME280;732;51.698;4.886;2023-03-26T13:08:38;100470.75;;;6.30;77.08
1480;BME280;732;51.698;4.886;2023-03-26T13:11:20;100471.28;;;6.33;77.45
1480;BME280;732;51.698;4.886;2023-03-26T13:14:06;100471.81;;;6.54;77.30
1480;BME280;732;51.698;4.886;2023-03-26T13:16:43;100495.47;;;6.65;76.08
1480;BME280;732;51.698;4.886;2023-03-26T13:19:17;100480.31;;;6.49;76.61
1480;BME280;732;51.698;4.886;2023-03-26T13:22:01;100515.78;;;6.58;76.54
1480;BME280;732;51.698;4.886;2023-03-26T13:24:45;100523.16;;;6.13;76.17
1480;BME280;732;51.698;4.886;2023-03-26T13:27:26;100489.41;;;5.79;76.11
1480;BME280;732;51.698;4.886;2023-03-26T13:30:04;100479.44;;;5.46;76.43
1480;BME280;732;51.698;4.886;2023-03-26T13:32:54;100521.53;;;5.77;76.84
1480;BME280;732;51.698;4.886;2023-03-26T13:35:32;100508.78;;;5.54;76.03
1480;BME280;732;51.698;4.886;2023-03-26T13:38:10;100528.78;;;5.67;76.42
1480;BME280;732;51.698;4.886;2023-03-26T13:40:50;100541.63;;;5.71;77.25
1480;BME280;732;51.698;4.886;2023-03-26T13:43:48;100542.31;;;5.74;76.06
1480;BME280;732;51.698;4.886;2023-03-26T13:46:29;100525.72;;;5.53;76.11
1480;BME280;732;51.698;4.886;2023-03-26T13:49:07;100559.84;;;5.58;75.85
1480;BME280;732;51.698;4.886;2023-03-26T13:51:42;100558.31;;;5.55;76.00
1480;BME280;732;51.698;4.886;2023-03-26T13:54:19;100537.28;;;5.36;75.81
1480;BME280;732;51.698;4.886;2023-03-26T13:56:53;100512.13;;;5.30;75.63
1480;BME280;732;51.698;4.886;2023-03-26T13:59:29;100568.22;;;5.98;75.44
1480;BME280;732;51.698;4.886;2023-03-26T14:02:04;100569.88;;;5.99;73.96
1480;BME280;732;51.698;4.886;2023-03-26T14:04:43;100576.25;;;6.06;73.97
1480;BME280;732;51.698;4.886;2023-03-26T14:07:17;100565.31;;;5.83;72.70
1480;BME280;732;51.698;4.886;2023-03-26T14:09:54;100577.72;;;5.74;73.52
1480;BME280;732;51.698;4.886;2023-03-26T14:12:36;100541.34;;;5.48;73.55
1480;BME280;732;51.698;4.886;2023-03-26T14:15:15;100562.91;;;5.71;72.65
1480;BME280;732;51.698;4.886;2023-03-26T14:17:49;100587.38;;;6.01;73.46
1480;BME280;732;51.698;4.886;2023-03-26T14:24:44;100591.56;;;6.39;71.93
1480;BME280;732;51.698;4.886;2023-03-26T14:27:36;100594.94;;;6.57;72.80
1480;BME280;732;51.698;4.886;2023-03-26T14:30:52;100593.16;;;6.74;71.98
1480;BME280;732;51.698;4.886;2023-03-26T14:33:57;100596.25;;;6.45;72.65
1480;BME280;732;51.698;4.886;2023-03-26T14:37:04;100561.25;;;6.05;73.48
1480;BME280;732;51.698;4.886;2023-03-26T14:40:04;100604.06;;;6.38;74.05
1480;BME280;732;51.698;4.886;2023-03-26T14:42:46;100574.13;;;6.18;74.12
1480;BME280;732;51.698;4.886;2023-03-26T14:45:47;100569.88;;;5.91;73.12
1480;BME280;732;51.698;4.886;2023-03-26T14:49:10;100606.03;;;6.36;72.18
1480;BME280;732;51.698;4.886;2023-03-26T14:51:58;100620.38;;;6.43;69.97
1480;BME280;732;51.698;4.886;2023-03-26T14:54:31;100639.44;;;6.57;69.21
1480;BME280;732;51.698;4.886;2023-03-26T15:01:20;100649.34;;;5.85;67.98
1480;BME280;732;51.698;4.886;2023-03-26T15:07:57;100659.38;;;5.65;69.13
1480;BME280;732;51.698;4.886;2023-03-26T15:11:12;100666.28;;;5.58;67.56
1480;BME280;732;51.698;4.886;2023-03-26T15:13:58;100676.94;;;5.58;68.09
1480;BME280;732;51.698;4.886;2023-03-26T15:20:48;100647.09;;;5.46;65.13
1480;BME280;732;51.698;4.886;2023-03-26T15:24:09;100686.59;;;5.59;65.23
1480;BME280;732;51.698;4.886;2023-03-26T15:37:05;100720.81;;;5.72;64.69
1480;BME280;732;51.698;4.886;2023-03-26T15:45:36;100715.03;;;5.59;63.02
1480;BME280;732;51.698;4.886;2023-03-26T15:48:31;100739.75;;;5.69;62.92
1480;BME280;732;51.698;4.886;2023-03-26T15:51:24;100602.97;;;4.81;63.22
1480;BME280;732;51.698;4.886;2023-03-26T15:54:04;100635.72;;;5.00;63.25
1480;BME280;732;51.698;4.886;2023-03-26T15:57:11;100760.13;;;5.78;63.79
1480;BME280;732;51.698;4.886;2023-03-26T15:59:59;100744.84;;;5.44;62.40